Time;durP1;ratioP1;P1;durP2;ratioP2;P2;SDS_P1;SDS_P2;PMS_P1;PMS_P2;Temp;Humidity;BMP_temperature;BMP_pressure;BME280_temperature;BME280_humidity;BME280_pressure;Samples;Min_cycle;Max_cycle;Signal;HPM_P1;HPM_P2
2022/10/21 00:01:46;;;;;;;32.00;6.93;;;;;;;12.32;100.00;99755.53;4951655;29;20055;-90
2022/10/21 00:04:12;;;;;;;24.55;5.85;;;;;;;12.42;100.00;99761.03;4954037;29;20062;-89
2022/10/21 00:06:39;;;;;;;29.30;6.15;;;;;;;12.38;100.00;99772.69;4969956;28;20109;-89
2022/10/21 00:09:06;;;;;;;28.48;6.53;;;;;;;12.23;100.00;99728.97;4973793;28;20138;-89
2022/10/21 00:11:33;;;;;;;25.73;7.32;;;;;;;12.38;100.00;99754.31;4966429;28;20106;-90
2022/10/21 00:13:59;;;;;;;33.00;6.30;;;;;;;12.28;100.00;99719.03;4957185;28;20051;-90
2022/10/21 00:16:26;;;;;;;30.65;6.00;;;;;;;12.44;100.00;99750.44;4956747;28;20051;-89
2022/10/21 00:18:53;;;;;;;36.10;7.25;;;;;;;12.40;100.00;99741.09;4956029;28;20055;-89
2022/10/21 00:21:21;;;;;;;28.20;7.00;;;;;;;12.43;100.00;99741.75;4954735;28;20486;-89
2022/10/21 00:23:48;;;;;;;32.47;6.75;;;;;;;12.35;100.00;99750.06;4955392;28;20054;-89
2022/10/21 00:26:17;;;;;;;25.30;6.93;;;;;;;12.42;100.00;99737.41;4969553;28;20355;-89
2022/10/21 00:28:44;;;;;;;29.67;6.70;;;;;;;12.18;100.00;99717.91;4969717;28;20051;-89
2022/10/21 00:31:13;;;;;;;29.48;6.15;;;;;;;12.48;100.00;99744.06;4956004;28;20390;-90
2022/10/21 00:33:40;;;;;;;34.78;7.55;;;;;;;12.30;100.00;99736.38;4972096;28;20058;-89
2022/10/21 00:36:13;;;;;;;34.00;6.22;;;;;;;12.26;100.00;99720.91;4972922;28;20058;-90
2022/10/21 00:38:43;;;;;;;21.23;5.95;;;;;;;12.45;100.00;99745.13;4972964;28;20392;-90
2022/10/21 00:41:11;;;;;;;32.42;7.10;;;;;;;12.30;100.00;99717.16;4971923;28;20051;-89
2022/10/21 00:44:03;;;;;;;23.10;6.38;;;;;;;12.44;100.00;99730.28;4975383;28;20160;-90
2022/10/21 00:46:41;;;;;;;27.42;6.43;;;;;;;12.39;100.00;99721.84;4975535;28;20094;-89
2022/10/21 00:49:17;;;;;;;32.33;6.88;;;;;;;12.11;100.00;99697.31;4963985;28;20043;-90
2022/10/21 00:51:46;;;;;;;23.98;6.68;;;;;;;12.34;100.00;99730.03;4975875;28;20046;-90
2022/10/21 00:54:13;;;;;;;20.45;7.32;;;;;;;12.10;100.00;99684.28;4958724;28;20046;-90
2022/10/21 00:56:43;;;;;;;20.40;5.70;;;;;;;12.25;100.00;99700.84;4975532;28;20059;-89
2022/10/21 00:59:10;;;;;;;20.35;5.75;;;;;;;12.17;100.00;99703.94;4974759;28;20058;-90
2022/10/21 01:01:37;;;;;;;23.02;6.47;;;;;;;12.14;100.00;99712.00;4974017;28;20547;-90
2022/10/21 01:04:04;;;;;;;19.50;5.45;;;;;;;12.27;100.00;99712.97;4974958;28;20456;-90
2022/10/21 01:06:33;;;;;;;19.42;4.72;;;;;;;12.12;100.00;99698.13;4961124;28;20054;-90
2022/10/21 01:09:00;;;;;;;17.00;4.78;;;;;;;12.14;100.00;99677.88;4974755;28;20055;-90
2022/10/21 01:11:32;;;;;;;18.40;5.85;;;;;;;12.10;100.00;99681.66;4956771;28;20121;-90
2022/10/21 01:13:58;;;;;;;19.35;4.90;;;;;;;12.31;100.00;99701.31;4958754;28;20512;-90
2022/10/21 01:16:40;;;;;;;21.48;6.45;;;;;;;12.21;100.00;99694.94;4958505;28;20113;-90
2022/10/21 01:19:37;;;;;;;21.27;6.13;;;;;;;12.18;100.00;99686.41;4960192;28;20055;-90
2022/10/21 01:22:51;;;;;;;21.83;6.57;;;;;;;12.12;100.00;99677.16;4954907;28;20520;-90
2022/10/21 01:25:39;;;;;;;;;;;;;;;12.32;100.00;99675.91;4925577;28;20051;-90
2022/10/21 01:28:12;;;;;;;17.70;6.10;;;;;;;12.30;100.00;99667.28;4955569;29;19926;-91
2022/10/21 01:30:43;;;;;;;24.50;5.38;;;;;;;11.91;100.00;99608.47;4959045;28;20049;-90
2022/10/21 01:33:22;;;;;;;21.90;7.07;;;;;;;12.20;100.00;99668.78;4974620;28;20560;-90
2022/10/21 01:35:58;;;;;;;21.27;5.82;;;;;;;11.99;100.00;99639.47;4958822;28;20481;-90
2022/10/21 01:38:37;;;;;;;19.40;6.10;;;;;;;12.19;100.00;99662.72;4963235;28;20058;-90
2022/10/21 01:41:17;;;;;;;21.13;5.28;;;;;;;12.28;100.00;99661.31;4962577;28;20055;-90
2022/10/21 01:44:26;;;;;;;12.65;3.80;;;;;;;12.18;100.00;99636.56;4970806;28;20054;-90
2022/10/21 01:47:13;;;;;;;20.30;5.93;;;;;;;12.20;100.00;99639.94;4973788;28;20051;-90
2022/10/21 01:49:44;;;;;;;23.23;7.25;;;;;;;12.06;100.00;99607.53;4954974;28;20063;-90
2022/10/21 01:52:11;;;;;;;23.52;6.68;;;;;;;12.04;100.00;99613.78;4969191;28;20038;-90
2022/10/21 01:54:42;;;;;;;16.02;5.30;;;;;;;12.11;100.00;99620.34;4952396;29;20051;-90
2022/10/21 01:57:13;;;;;;;20.45;5.95;;;;;;;12.15;100.00;99622.69;4955040;28;20051;-90
2022/10/21 01:59:42;;;;;;;16.10;4.53;;;;;;;12.25;100.00;99615.13;4973778;28;20121;-89
2022/10/21 02:02:09;;;;;;;16.23;5.32;;;;;;;12.08;100.00;99581.19;4971388;28;20047;-90
2022/10/21 02:04:39;;;;;;;11.68;4.32;;;;;;;11.95;100.00;99573.22;4974351;28;20051;-90
2022/10/21 02:07:06;;;;;;;12.90;4.32;;;;;;;11.84;100.00;99536.31;4974785;28;20489;-91
2022/10/21 02:09:33;;;;;;;20.58;4.78;;;;;;;12.15;100.00;99593.00;4958610;28;20055;-91
2022/10/21 02:12:02;;;;;;;18.30;3.83;;;;;;;12.11;100.00;99567.88;4956564;28;20050;-91
2022/10/21 02:14:46;;;;;;;11.95;3.30;;;;;;;12.24;100.00;99583.72;4965769;28;20142;-91
2022/10/21 02:17:17;;;;;;;15.30;3.10;;;;;;;12.22;100.00;99569.84;4954946;28;20105;-90
2022/10/21 02:19:45;;;;;;;22.00;3.83;;;;;;;11.75;100.00;99519.34;4950849;28;20096;-91
2022/10/21 02:22:18;;;;;;;14.07;4.32;;;;;;;11.83;100.00;99534.59;4961280;28;20056;-90
2022/10/21 02:24:58;;;;;;;15.25;4.43;;;;;;;12.11;100.00;99571.34;4957910;28;20051;-91
2022/10/21 02:27:25;;;;;;;15.88;3.85;;;;;;;12.00;100.00;99560.66;4974006;28;20050;-91
2022/10/21 02:29:56;;;;;;;12.60;3.58;;;;;;;11.98;100.00;99535.50;4958020;28;20598;-91
2022/10/21 02:32:44;;;;;;;20.27;5.10;;;;;;;12.05;100.00;99555.16;4973594;28;20081;-91
2022/10/21 02:35:17;;;;;;;12.73;3.70;;;;;;;11.74;100.00;99496.72;4970860;28;20059;-92
2022/10/21 02:37:56;;;;;;;13.93;4.60;;;;;;;12.04;100.00;99551.69;4975494;28;20104;-91
2022/10/21 02:40:29;;;;;;;12.18;4.18;;;;;;;11.89;100.00;99518.50;4971060;28;20073;-91
2022/10/21 02:43:00;;;;;;;16.10;4.32;;;;;;;12.00;100.00;99520.50;4962140;28;20062;-91
2022/10/21 02:45:27;;;;;;;16.58;3.63;;;;;;;12.13;100.00;99534.53;4973075;28;20051;-91
2022/10/21 02:47:54;;;;;;;18.23;4.22;;;;;;;11.88;100.00;99501.06;4974017;28;20059;-92
2022/10/21 02:50:20;;;;;;;14.60;4.07;;;;;;;11.98;100.00;99517.97;4972142;28;20410;-91
2022/10/21 02:52:47;;;;;;;13.13;4.20;;;;;;;12.00;100.00;99516.06;4969580;28;20106;-92
2022/10/21 02:55:14;;;;;;;16.70;3.97;;;;;;;11.98;100.00;99519.75;4947511;28;20058;-90
2022/10/21 02:57:41;;;;;;;12.15;3.35;;;;;;;11.69;100.00;99457.66;4957032;28;20097;-91
2022/10/21 03:00:08;;;;;;;13.77;4.20;;;;;;;11.88;100.00;99482.72;4963304;28;20097;-91
2022/10/21 03:02:35;;;;;;;22.35;5.50;;;;;;;11.91;100.00;99503.53;4957200;28;20051;-92
2022/10/21 03:05:02;;;;;;;13.20;4.18;;;;;;;11.78;100.00;99482.47;4973098;28;20051;-91
2022/10/21 03:07:29;;;;;;;16.83;3.95;;;;;;;11.82;100.00;99483.94;4972613;28;20105;-91
2022/10/21 03:09:56;;;;;;;10.98;3.75;;;;;;;11.89;100.00;99493.13;4972111;28;20121;-93
2022/10/21 03:12:22;;;;;;;12.30;3.78;;;;;;;11.72;100.00;99473.22;4956807;28;20047;-91
2022/10/21 03:14:49;;;;;;;9.02;2.75;;;;;;;11.89;100.00;99466.06;4956025;28;20055;-92
2022/10/21 03:17:16;;;;;;;12.50;3.00;;;;;;;11.91;100.00;99465.03;4966857;28;20051;-91
2022/10/21 03:19:48;;;;;;;10.90;2.58;;;;;;;11.95;100.00;99474.41;4957928;28;20109;-91
2022/10/21 03:22:15;;;;;;;9.95;2.35;;;;;;;11.88;100.00;99462.59;4973764;28;20075;-92
2022/10/21 03:24:41;;;;;;;7.75;2.22;;;;;;;11.85;100.00;99449.66;4959168;28;20457;-93
2022/10/21 03:27:08;;;;;;;13.98;2.55;;;;;;;11.68;100.00;99435.00;4973140;28;20133;-92
2022/10/21 03:29:35;;;;;;;7.40;2.55;;;;;;;11.73;100.00;99424.22;4968912;28;20059;-92
2022/10/21 03:32:02;;;;;;;9.07;2.25;;;;;;;11.82;100.00;99428.03;4955120;28;20068;-92
2022/10/21 03:34:28;;;;;;;6.70;1.80;;;;;;;11.93;100.00;99442.19;4969509;28;20105;-92
2022/10/21 03:36:55;;;;;;;7.10;2.05;;;;;;;11.84;100.00;99427.00;4960351;28;20054;-92
2022/10/21 03:39:22;;;;;;;6.75;2.13;;;;;;;11.75;100.00;99393.50;4957847;28;20108;-92
2022/10/21 03:41:48;;;;;;;6.47;1.70;;;;;;;12.02;100.00;99427.63;4945791;28;20371;-92
2022/10/21 03:44:15;;;;;;;6.13;1.80;;;;;;;12.05;100.00;99437.09;4957300;28;20101;-91
2022/10/21 03:46:42;;;;;;;5.65;1.40;;;;;;;11.92;100.00;99409.03;4956855;28;20059;-92
2022/10/21 03:49:09;;;;;;;3.80;1.60;;;;;;;11.99;100.00;99421.72;4973096;28;20050;-92
2022/10/21 03:51:46;;;;;;;8.75;1.98;;;;;;;12.05;100.00;99411.69;4971218;28;20374;-92
2022/10/21 03:54:13;;;;;;;4.15;1.40;;;;;;;11.92;100.00;99382.81;4942865;29;20051;-91
2022/10/21 03:56:40;;;;;;;4.00;1.70;;;;;;;12.18;100.00;99432.72;4966971;28;20060;-92
2022/10/21 03:59:06;;;;;;;5.47;1.45;;;;;;;12.00;100.00;99395.41;4967671;28;20509;-92
2022/10/21 04:01:33;;;;;;;5.78;1.52;;;;;;;12.19;100.00;99428.34;4971476;28;20093;-92
2022/10/21 04:04:00;;;;;;;7.03;1.67;;;;;;;11.69;100.00;99368.50;4973620;28;20080;-92
2022/10/21 04:06:27;;;;;;;5.07;1.48;;;;;;;11.91;100.00;99382.91;4969740;28;20066;-92
2022/10/21 04:08:53;;;;;;;12.27;1.85;;;;;;;11.80;100.00;99357.34;4973725;28;20058;-92
2022/10/21 04:11:20;;;;;;;4.38;1.50;;;;;;;11.99;100.00;99396.38;4973068;28;20047;-92
2022/10/21 04:13:47;;;;;;;4.15;1.27;;;;;;;12.20;100.00;99407.25;4961513;28;20059;-92
2022/10/21 04:16:17;;;;;;;4.63;1.33;;;;;;;12.30;100.00;99404.84;4977149;28;20055;-92
2022/10/21 04:18:44;;;;;;;4.00;1.33;;;;;;;12.32;100.00;99397.69;4976931;28;20766;-92
2022/10/21 04:21:11;;;;;;;4.38;1.42;;;;;;;12.27;100.00;99373.53;4966758;28;20109;-92
2022/10/21 04:23:38;;;;;;;5.63;1.55;;;;;;;12.09;100.00;99360.72;4968867;28;20059;-92
2022/10/21 04:26:06;;;;;;;4.18;1.40;;;;;;;12.41;100.00;99388.38;4974325;28;20051;-92
2022/10/21 04:28:33;;;;;;;6.55;1.58;;;;;;;12.26;100.00;99366.63;4967337;28;20055;-92
2022/10/21 04:31:01;;;;;;;4.63;1.35;;;;;;;12.22;100.00;99339.75;4967690;28;20051;-92
2022/10/21 04:33:27;;;;;;;4.40;1.48;;;;;;;12.30;100.00;99349.72;4961272;28;20055;-91
2022/10/21 04:35:55;;;;;;;3.75;1.50;;;;;;;12.45;100.00;99374.13;4973218;28;20063;-92
2022/10/21 04:38:22;;;;;;;5.75;1.50;;;;;;;12.38;100.00;99346.56;4979779;28;20057;-92
2022/10/21 04:40:59;;;;;;;4.47;1.40;;;;;;;12.39;100.00;99353.53;4971731;28;20063;-91
2022/10/21 04:43:26;;;;;;;3.70;1.40;;;;;;;12.59;100.00;99362.66;4973757;28;20480;-92
2022/10/21 04:45:53;;;;;;;9.70;1.85;;;;;;;12.56;100.00;99355.84;4975993;28;20054;-92
2022/10/21 04:48:21;;;;;;;5.30;1.60;;;;;;;12.62;100.00;99371.19;4960118;28;20055;-91
2022/10/21 04:50:49;;;;;;;4.43;1.30;;;;;;;12.55;100.00;99359.41;4972685;28;20478;-91
2022/10/21 04:53:16;;;;;;;7.25;1.70;;;;;;;12.43;100.00;99340.09;4962749;28;20053;-92
2022/10/21 04:55:43;;;;;;;7.68;1.83;;;;;;;12.45;100.00;99334.75;4967187;28;20110;-92
2022/10/21 04:58:10;;;;;;;5.75;1.80;;;;;;;12.41;100.00;99302.63;4966990;28;20047;-91
2022/10/21 05:00:37;;;;;;;6.28;1.90;;;;;;;12.48;100.00;99314.38;4972958;28;20129;-91
2022/10/21 05:03:04;;;;;;;5.80;1.77;;;;;;;12.59;100.00;99329.41;4966128;28;20055;-91
2022/10/21 05:05:31;;;;;;;7.30;2.00;;;;;;;12.46;100.00;99312.78;4975267;28;20054;-88
2022/10/21 05:07:57;;;;;;;8.15;2.08;;;;;;;12.52;100.00;99315.00;4977152;28;20184;-94
2022/10/21 05:10:24;;;;;;;6.00;1.77;;;;;;;12.61;100.00;99334.56;4973204;28;20051;-90
2022/10/21 05:12:51;;;;;;;6.43;1.42;;;;;;;12.84;100.00;99359.22;4957338;28;20540;-89
2022/10/21 05:15:18;;;;;;;8.80;2.28;;;;;;;12.73;100.00;99349.47;4958283;28;20054;-89
2022/10/21 05:17:45;;;;;;;8.93;2.50;;;;;;;12.65;100.00;99334.22;4969986;28;20102;-89
2022/10/21 05:20:12;;;;;;;5.72;2.05;;;;;;;12.57;100.00;99296.31;4946597;28;20442;-90
2022/10/21 05:22:39;;;;;;;7.30;2.03;;;;;;;12.75;100.00;99325.69;4974753;28;20073;-90
2022/10/21 05:25:07;;;;;;;8.07;2.03;;;;;;;12.85;100.00;99334.63;4973422;28;20059;-90
2022/10/21 05:27:33;;;;;;;7.95;2.40;;;;;;;12.91;100.00;99350.81;4974640;28;20122;-91
2022/10/21 05:30:00;;;;;;;8.07;2.45;;;;;;;12.75;100.00;99320.44;4958355;28;20478;-91
2022/10/21 05:32:27;;;;;;;7.20;2.03;;;;;;;12.81;100.00;99309.53;4960014;28;20508;-91
2022/10/21 05:34:54;;;;;;;5.80;1.95;;;;;;;12.90;100.00;99338.59;4974860;28;20063;-91
2022/10/21 05:37:20;;;;;;;6.95;2.05;;;;;;;12.83;100.00;99342.63;4959332;28;20114;-93
2022/10/21 05:39:47;;;;;;;8.63;1.85;;;;;;;12.81;100.00;99314.78;4959031;28;20121;-92
2022/10/21 05:42:14;;;;;;;4.85;1.70;;;;;;;12.80;100.00;99326.22;4965856;28;20050;-92
2022/10/21 05:44:41;;;;;;;4.07;1.52;;;;;;;13.02;100.00;99352.69;4975071;28;20047;-92
2022/10/21 05:47:07;;;;;;;5.07;1.80;;;;;;;12.80;100.00;99313.97;4959181;28;20230;-91
2022/10/21 05:49:34;;;;;;;5.55;1.65;;;;;;;12.83;100.00;99318.13;4961206;28;20075;-91
2022/10/21 05:52:01;;;;;;;6.20;1.70;;;;;;;12.94;100.00;99336.59;4947841;28;20054;-91
2022/10/21 05:54:28;;;;;;;4.90;2.03;;;;;;;12.81;100.00;99310.38;4965822;28;20067;-91
2022/10/21 05:56:55;;;;;;;4.85;1.75;;;;;;;12.83;100.00;99310.25;4980491;28;20085;-91
2022/10/21 05:59:23;;;;;;;6.15;1.90;;;;;;;13.00;100.00;99327.47;4987071;28;20059;-92
2022/10/21 06:01:50;;;;;;;8.15;2.40;;;;;;;12.85;100.00;99321.50;4964468;28;20047;-91
2022/10/21 06:04:17;;;;;;;7.53;2.35;;;;;;;12.85;100.00;99303.94;4958799;28;20116;-90
2022/10/21 06:06:43;;;;;;;7.88;2.55;;;;;;;12.88;100.00;99311.63;4975616;28;20113;-91
2022/10/21 06:09:10;;;;;;;7.93;2.58;;;;;;;12.89;100.00;99300.16;4974746;28;20448;-91
2022/10/21 06:11:37;;;;;;;8.75;2.75;;;;;;;12.83;100.00;99297.97;4972769;28;20042;-90
2022/10/21 06:14:04;;;;;;;8.98;2.28;;;;;;;13.07;100.00;99326.94;4972715;28;20114;-91
2022/10/21 06:16:34;;;;;;;9.02;3.38;;;;;;;12.86;100.00;99307.44;4973889;28;20054;-91
2022/10/21 06:19:01;;;;;;;9.43;3.15;;;;;;;12.92;100.00;99312.25;4974109;28;20521;-91
2022/10/21 06:21:28;;;;;;;8.98;3.60;;;;;;;12.75;100.00;99275.81;4964718;28;20055;-91
2022/10/21 06:23:55;;;;;;;7.72;3.13;;;;;;;12.70;100.00;99266.47;4954541;29;20481;-91
2022/10/21 06:26:22;;;;;;;10.13;3.63;;;;;;;12.97;100.00;99306.69;4968203;28;20493;-91
2022/10/21 06:28:49;;;;;;;6.75;2.30;;;;;;;12.78;100.00;99275.59;4974116;28;20406;-91
2022/10/21 06:31:20;;;;;;;6.68;2.13;;;;;;;13.04;100.00;99315.81;4964186;28;20071;-92
2022/10/21 06:33:47;;;;;;;7.75;1.98;;;;;;;12.78;100.00;99279.06;4974145;28;20425;-91
2022/10/21 06:36:14;;;;;;;8.60;2.05;;;;;;;12.94;100.00;99304.25;4953986;28;20059;-92
2022/10/21 06:38:41;;;;;;;7.40;2.30;;;;;;;12.87;100.00;99288.06;4957759;28;20121;-91
2022/10/21 06:41:10;;;;;;;4.25;1.77;;;;;;;12.87;100.00;99281.06;4974660;28;20038;-90
2022/10/21 06:43:40;;;;;;;7.25;2.42;;;;;;;12.98;100.00;99282.06;4991003;28;20054;-91
2022/10/21 06:46:21;;;;;;;6.28;2.20;;;;;;;12.94;100.00;99284.06;4976498;28;20074;-91
2022/10/21 06:49:01;;;;;;;5.35;1.75;;;;;;;12.93;100.00;99287.66;4990182;28;20051;-91
2022/10/21 06:51:30;;;;;;;5.72;1.80;;;;;;;13.13;100.00;99314.31;4977149;28;20054;-90
2022/10/21 06:53:58;;;;;;;6.80;1.83;;;;;;;13.14;100.00;99315.97;4963549;28;20044;-90
2022/10/21 06:56:26;;;;;;;5.30;1.70;;;;;;;12.98;100.00;99295.19;4989196;28;20070;-91
2022/10/21 06:59:00;;;;;;;8.70;2.50;;;;;;;12.71;100.00;99267.31;4974445;28;20580;-91
2022/10/21 07:01:41;;;;;;;4.95;1.60;;;;;;;13.07;100.00;99326.09;4971087;28;20043;-91
2022/10/21 07:04:22;;;;;;;7.60;2.42;;;;;;;12.80;100.00;99289.47;4948712;28;20081;-90
2022/10/21 07:06:50;;;;;;;8.15;2.85;;;;;;;12.89;100.00;99313.31;4974034;28;20069;-90
2022/10/21 07:09:31;;;;;;;6.65;2.55;;;;;;;13.00;100.00;99333.56;4976303;28;20051;-91
2022/10/21 07:12:12;;;;;;;6.13;2.13;;;;;;;13.27;100.00;99337.81;4985809;28;20058;-90
2022/10/21 07:14:53;;;;;;;7.50;2.00;;;;;;;13.13;100.00;99311.69;4986015;28;20066;-89
2022/10/21 07:17:34;;;;;;;8.68;2.10;;;;;;;13.31;100.00;99339.31;4986889;28;20429;-91
2022/10/21 07:20:02;;;;;;;6.18;1.73;;;;;;;12.97;100.00;99281.22;4973181;28;20113;-91
2022/10/21 07:22:31;;;;;;;7.10;2.22;;;;;;;13.37;100.00;99338.88;4987621;28;20049;-91
2022/10/21 07:25:12;;;;;;;8.75;3.28;;;;;;;13.36;100.00;99339.00;4977600;28;20091;-89
2022/10/21 07:27:53;;;;;;;8.60;3.03;;;;;;;13.33;100.00;99347.09;4976782;28;20077;-91
2022/10/21 07:30:47;;;;;;;10.13;2.78;;;;;;;13.34;100.00;99346.97;4985259;28;20078;-90
2022/10/21 07:33:28;;;;;;;7.97;2.88;;;;;;;13.23;100.00;99337.19;4976968;28;20031;-89
2022/10/21 07:36:06;;;;;;;6.13;2.22;;;;;;;13.28;100.00;99342.16;4990111;28;20046;-90
2022/10/21 07:38:36;;;;;;;9.45;2.67;;;;;;;13.42;100.00;99356.94;4990105;28;20045;-89
2022/10/21 07:41:05;;;;;;;11.13;3.58;;;;;;;13.08;100.00;99307.59;4990066;28;20065;-89
2022/10/21 07:43:32;;;;;;;10.88;3.50;;;;;;;13.34;100.00;99330.38;4989315;28;20062;-89
2022/10/21 07:46:13;;;;;;;6.72;2.60;;;;;;;13.38;100.00;99339.72;4989191;28;20410;-89
2022/10/21 07:48:54;;;;;;;10.18;3.28;;;;;;;13.43;100.00;99354.22;4990913;28;20057;-91
2022/10/21 07:51:37;;;;;;;9.98;2.97;;;;;;;13.25;100.00;99326.59;4995855;28;20081;-90
2022/10/21 07:54:18;;;;;;;7.70;2.55;;;;;;;13.47;100.00;99360.09;5005729;28;20047;-90
2022/10/21 07:56:58;;;;;;;6.80;2.40;;;;;;;13.31;100.00;99328.78;5001321;28;20287;-90
2022/10/21 07:59:39;;;;;;;9.50;4.15;;;;;;;13.32;100.00;99327.84;4994761;28;20041;-90
2022/10/21 08:02:20;;;;;;;8.75;3.33;;;;;;;13.53;100.00;99358.81;4980455;28;20046;-90
2022/10/21 08:05:01;;;;;;;13.80;3.90;;;;;;;13.53;100.00;99358.81;4995429;28;20106;-89
2022/10/21 08:07:41;;;;;;;9.88;3.53;;;;;;;13.53;100.00;99361.44;4980928;28;20058;-90
2022/10/21 08:10:22;;;;;;;12.60;4.30;;;;;;;13.38;100.00;99334.47;4976236;28;20073;-88
2022/10/21 08:13:02;;;;;;;7.78;2.35;;;;;;;13.46;100.00;99345.28;4985109;28;20038;-89
2022/10/21 08:15:45;;;;;;;11.65;2.90;;;;;;;13.62;100.00;99359.00;4994705;28;20105;-89
2022/10/21 08:18:26;;;;;;;11.43;3.28;;;;;;;13.59;100.00;99367.09;4993613;28;20034;-90
2022/10/21 08:21:07;;;;;;;8.40;2.83;;;;;;;13.44;100.00;99349.81;4991954;28;20053;-89
2022/10/21 08:23:48;;;;;;;9.45;2.75;;;;;;;13.45;100.00;99360.19;4974139;29;20067;-91
2022/10/21 08:26:29;;;;;;;10.68;2.88;;;;;;;13.58;100.00;99372.47;4981256;28;20035;-90
2022/10/21 08:29:10;;;;;;;6.72;2.50;;;;;;;13.64;100.00;99379.94;4993927;28;20050;-90
2022/10/21 08:31:51;;;;;;;6.95;2.22;;;;;;;13.62;100.00;99376.56;4986595;28;20085;-91
2022/10/21 08:34:31;;;;;;;6.00;1.60;;;;;;;13.56;100.00;99363.84;4993863;28;20058;-90
2022/10/21 08:37:12;;;;;;;11.18;2.38;;;;;;;13.51;100.00;99373.84;4984793;28;20133;-89
2022/10/21 08:40:09;;;;;;;4.88;1.80;;;;;;;13.50;100.00;99366.94;4981792;28;20054;-89
2022/10/21 08:42:50;;;;;;;8.48;2.63;;;;;;;13.55;100.00;99389.31;4979232;28;20114;-89
2022/10/21 08:45:42;;;;;;;6.35;1.95;;;;;;;13.52;100.00;99392.16;4979862;28;20086;-90
2022/10/21 08:48:38;;;;;;;7.15;2.28;;;;;;;13.24;100.00;99366.94;4978333;28;20031;-90
2022/10/21 08:51:28;;;;;;;5.60;2.03;;;;;;;13.29;100.00;99381.44;4978934;28;20030;-88
2022/10/21 08:54:02;;;;;;;4.68;1.70;;;;;;;13.10;100.00;99345.13;4976451;28;20051;-89
2022/10/21 08:56:31;;;;;;;5.20;1.67;;;;;;;13.30;100.00;99380.50;4992588;28;20050;-89
2022/10/21 08:58:59;;;;;;;4.78;1.70;;;;;;;13.24;100.00;99401.97;4992524;28;20035;-88
2022/10/21 09:01:50;;;;;;;5.93;1.92;;;;;;;12.97;100.00;99380.22;4976604;28;20063;-89
2022/10/21 09:05:06;;;;;;;4.00;1.60;;;;;;;13.23;100.00;99409.97;4967991;28;20038;-89
2022/10/21 09:07:46;;;;;;;3.35;1.50;;;;;;;13.31;100.00;99407.66;4971597;28;20047;-89
2022/10/21 09:10:27;;;;;;;3.75;1.40;;;;;;;13.38;100.00;99400.19;5000298;28;20109;-88
2022/10/21 09:13:03;;;;;;;4.78;1.83;;;;;;;13.34;100.00;99398.72;4973125;29;20485;-89
2022/10/21 09:15:53;;;;;;;5.13;1.75;;;;;;;13.24;100.00;99403.75;4984614;28;20047;-89
2022/10/21 09:19:02;;;;;;;3.72;1.40;;;;;;;13.15;100.00;99405.22;4978602;28;20077;-89
2022/10/21 09:22:11;;;;;;;2.67;1.15;;;;;;;13.23;100.00;99402.91;4991758;28;20031;-88
2022/10/21 09:25:15;;;;;;;2.85;1.17;;;;;;;13.23;100.00;99395.03;4972146;28;20485;-88
2022/10/21 09:27:57;;;;;;;6.28;2.08;;;;;;;13.08;100.00;99354.03;4979928;28;20065;-88
2022/10/21 09:30:29;;;;;;;3.58;1.10;;;;;;;13.57;100.00;99403.19;4983479;28;20055;-89
2022/10/21 09:33:34;;;;;;;2.67;1.30;;;;;;;13.67;100.00;99406.84;4978682;28;20051;-87
2022/10/21 09:36:22;;;;;;;4.70;1.30;;;;;;;13.59;100.00;99411.81;4961068;28;20050;-88
2022/10/21 09:39:13;;;;;;;3.95;1.15;;;;;;;13.37;100.00;99362.56;4977335;28;20038;-89
2022/10/21 09:41:57;;;;;;;3.50;1.20;;;;;;;13.64;100.00;99419.38;4989818;28;20110;-89
2022/10/21 09:44:38;;;;;;;3.20;1.15;;;;;;;13.36;100.00;99388.94;4983443;28;20094;-89
2022/10/21 09:47:24;;;;;;;2.67;1.10;;;;;;;13.65;100.00;99421.03;4980739;28;20078;-89
2022/10/21 09:50:05;;;;;;;3.05;1.13;;;;;;;13.46;100.00;99392.59;4990567;28;20097;-89
2022/10/21 09:52:54;;;;;;;4.25;1.30;;;;;;;13.28;100.00;99377.16;4986259;28;20058;-89
2022/10/21 09:55:38;;;;;;;2.38;0.90;;;;;;;13.45;100.00;99411.94;4976787;28;20090;-87
2022/10/21 09:58:44;;;;;;;8.05;1.30;;;;;;;13.23;100.00;99389.78;4990445;28;20039;-88
2022/10/21 10:01:20;;;;;;;4.22;1.17;;;;;;;13.20;100.00;99376.84;4996297;28;20082;-89
2022/10/21 10:03:53;;;;;;;5.68;1.45;;;;;;;13.36;100.00;99405.53;4991276;28;20054;-88
2022/10/21 10:06:36;;;;;;;3.55;1.50;;;;;;;13.20;100.00;99400.50;5001471;28;20050;-88
2022/10/21 10:09:32;;;;;;;2.75;1.00;;;;;;;13.38;100.00;99426.47;5002289;28;20488;-89
2022/10/21 10:12:12;;;;;;;3.22;1.10;;;;;;;13.12;100.00;99387.06;4985861;28;20047;-88
2022/10/21 10:14:43;;;;;;;4.40;1.35;;;;;;;13.13;100.00;99388.72;4974395;28;20055;-89
2022/10/21 10:17:35;;;;;;;5.22;1.20;;;;;;;13.42;100.00;99441.94;4973932;28;20047;-88
2022/10/21 10:20:03;;;;;;;4.18;1.05;;;;;;;13.38;100.00;99442.25;4972459;28;20113;-88
2022/10/21 10:22:40;;;;;;;2.53;1.10;;;;;;;13.35;100.00;99438.06;4956095;28;20055;-88
2022/10/21 10:25:23;;;;;;;2.65;1.13;;;;;;;13.37;100.00;99444.03;4968217;28;20046;-88
2022/10/21 10:28:09;;;;;;;4.63;1.40;;;;;;;13.51;100.00;99445.72;5003580;28;20078;-87
2022/10/21 10:30:54;;;;;;;3.05;1.60;;;;;;;13.25;100.00;99431.72;4976808;28;20061;-88
2022/10/21 10:33:35;;;;;;;6.32;1.30;;;;;;;13.11;100.00;99422.16;4952064;28;20043;-89
2022/10/21 10:36:26;;;;;;;2.70;0.90;;;;;;;13.07;100.00;99404.94;4990299;28;20188;-88
2022/10/21 10:38:57;;;;;;;2.83;1.50;;;;;;;13.41;100.00;99463.91;4974982;28;20054;-88
2022/10/21 10:41:44;;;;;;;4.85;1.13;;;;;;;13.24;100.00;99440.53;4972346;28;20117;-89
2022/10/21 10:44:37;;;;;;;6.38;1.35;;;;;;;13.37;100.00;99467.69;4975306;28;20061;-88
2022/10/21 10:47:24;;;;;;;3.28;1.25;;;;;;;13.24;100.00;99437.91;4980972;28;20108;-88
2022/10/21 10:49:53;;;;;;;3.92;1.10;;;;;;;13.27;100.00;99451.69;4987911;28;20061;-88
2022/10/21 10:52:33;;;;;;;4.65;1.60;;;;;;;13.37;100.00;99443.19;4966794;28;20023;-89
2022/10/21 10:55:17;;;;;;;4.22;1.20;;;;;;;13.55;100.00;99476.09;4975914;28;20046;-89
2022/10/21 10:58:01;;;;;;;;;;;;;;;13.60;100.00;99467.91;4975956;28;20074;-88
2022/10/21 11:00:44;;;;;;;4.60;1.27;;;;;;;13.17;100.00;99423.53;4989584;28;19926;-89
2022/10/21 11:03:37;;;;;;;4.43;1.40;;;;;;;13.43;100.00;99488.28;4991761;28;20102;-91
2022/10/21 11:06:26;;;;;;;4.35;1.30;;;;;;;13.22;100.00;99472.19;4985255;28;20051;-90
2022/10/21 11:09:07;;;;;;;3.00;1.00;;;;;;;13.18;100.00;99457.59;4991310;28;20049;-90
2022/10/21 11:11:53;;;;;;;1.65;0.90;;;;;;;13.35;100.00;99492.41;4989260;28;20074;-91
2022/10/21 11:14:34;;;;;;;3.47;0.88;;;;;;;13.50;100.00;99485.25;4978895;28;20074;-90
2022/10/21 11:17:18;;;;;;;3.30;1.10;;;;;;;13.73;100.00;99497.63;4978297;28;20062;-89
2022/10/21 11:20:06;;;;;;;2.90;1.00;;;;;;;13.64;100.00;99503.53;4984489;28;20047;-88
2022/10/21 11:22:54;;;;;;;2.03;0.80;;;;;;;13.60;100.00;99470.53;4990035;28;20066;-89
2022/10/21 11:26:04;;;;;;;1.67;0.80;;;;;;;13.76;100.00;99460.59;4972643;29;20074;-89
2022/10/21 11:29:01;;;;;;;1.30;0.80;;;;;;;13.64;100.00;99467.56;4989031;28;20062;-89
2022/10/21 11:31:46;;;;;;;1.67;0.80;;;;;;;14.00;100.00;99492.19;4979542;28;20050;-90
2022/10/21 11:34:54;;;;;;;1.90;0.80;;;;;;;13.94;100.00;99468.13;4977806;28;20093;-91
2022/10/21 11:38:18;;;;;;;1.17;0.73;;;;;;;13.78;100.00;99463.94;4964330;29;20055;-90
2022/10/21 11:41:08;;;;;;;1.40;0.80;;;;;;;14.03;100.00;99484.06;4987462;28;20047;-90
2022/10/21 11:43:55;;;;;;;3.08;0.80;;;;;;;14.01;100.00;99467.56;4977808;28;20047;-90
2022/10/21 11:46:51;;;;;;;3.15;1.00;;;;;;;14.02;100.00;99490.31;4972762;28;20054;-90
2022/10/21 11:50:09;;;;;;;1.98;0.88;;;;;;;14.38;100.00;99500.91;4982384;28;20191;-91
2022/10/21 11:53:14;;;;;;;1.67;0.88;;;;;;;14.18;100.00;99471.63;4991109;28;20037;-88
2022/10/21 11:55:58;;;;;;;2.00;0.90;;;;;;;14.35;100.00;99493.22;4982426;28;20497;-91
2022/10/21 11:58:54;;;;;;;;;;;;;;;14.63;100.00;99483.34;4991705;28;20047;-90
2022/10/21 12:02:09;;;;;;;2.63;0.85;;;;;;;14.48;100.00;99451.03;4975900;28;19922;-89
2022/10/21 12:05:08;;;;;;;1.30;0.73;;;;;;;14.31;100.00;99457.56;4990729;28;20081;-90